Time;durP1;ratioP1;P1;durP2;ratioP2;P2;SDS_P1;SDS_P2;PMS_P1;PMS_P2;Temp;Humidity;BMP_temperature;BMP_pressure;BME280_temperature;BME280_humidity;BME280_pressure;Samples;Min_cycle;Max_cycle;Signal;HPM_P1;HPM_P2
2021/09/18 00:00:26;;;;;;;;;;;23.80;48.50;;;;;;1624695;73;744;-70
2021/09/18 00:02:28;;;;;;;;;;;23.90;48.50;;;;;;1610534;73;728;-69
2021/09/18 00:04:30;;;;;;;;;;;23.90;48.60;;;;;;1619539;73;768;-70
2021/09/18 00:06:33;;;;;;;;;;;23.90;48.50;;;;;;1618440;72;1182;-70
2021/09/18 00:08:34;;;;;;;;;;;23.90;48.40;;;;;;1618204;73;674;-69
2021/09/18 00:10:36;;;;;;;;;;;23.90;48.40;;;;;;1617917;73;1960;-69
2021/09/18 00:12:38;;;;;;;;;;;23.90;48.40;;;;;;1618045;73;782;-70
2021/09/18 00:14:40;;;;;;;;;;;23.90;48.40;;;;;;1593013;74;766;-70
2021/09/18 00:16:42;;;;;;;;;;;23.90;48.40;;;;;;1590863;73;1196;-70
2021/09/18 00:18:44;;;;;;;;;;;23.90;48.50;;;;;;1582562;74;758;-72
2021/09/18 00:20:46;;;;;;;;;;;23.90;48.40;;;;;;1620413;73;779;-74
2021/09/18 00:22:48;;;;;;;;;;;23.90;48.40;;;;;;1616912;73;804;-70
2021/09/18 00:24:49;;;;;;;;;;;23.80;48.40;;;;;;1624347;73;770;-70
2021/09/18 00:26:51;;;;;;;;;;;23.90;48.50;;;;;;1618201;72;1104;-70
2021/09/18 00:28:53;;;;;;;;;;;23.90;48.40;;;;;;1615199;73;1940;-70
2021/09/18 00:30:55;;;;;;;;;;;23.90;48.40;;;;;;1624735;73;745;-70
2021/09/18 00:32:57;;;;;;;;;;;23.90;48.50;;;;;;1616063;73;769;-70
2021/09/18 00:34:59;;;;;;;;;;;23.90;48.50;;;;;;1616270;73;713;-72
2021/09/18 00:37:01;;;;;;;;;;;23.90;48.50;;;;;;1597544;72;224982;-57
2021/09/18 00:39:03;;;;;;;;;;;23.90;48.50;;;;;;1549169;75;699;-59
2021/09/18 00:41:04;;;;;;;;;;;23.90;48.40;;;;;;1538768;77;735;-57
2021/09/18 00:43:06;;;;;;;;;;;23.90;48.40;;;;;;1537649;77;680;-57
2021/09/18 00:45:09;;;;;;;;;;;23.90;48.40;;;;;;1514690;76;1217;-57
2021/09/18 00:47:11;;;;;;;;;;;23.90;48.40;;;;;;1499116;77;779;-59
2021/09/18 00:49:13;;;;;;;;;;;23.90;48.30;;;;;;1511860;78;1926;-57
2021/09/18 00:51:14;;;;;;;;;;;23.90;48.20;;;;;;1512748;78;700;-57
2021/09/18 00:53:16;;;;;;;;;;;23.90;48.20;;;;;;1512577;77;1235;-57
2021/09/18 00:55:18;;;;;;;;;;;23.90;48.30;;;;;;1512976;77;766;-57
2021/09/18 00:57:20;;;;;;;;;;;23.90;48.20;;;;;;1513266;77;712;-57
2021/09/18 00:59:22;;;;;;;;;;;23.90;48.10;;;;;;1512698;78;672;-58
2021/09/18 01:01:24;;;;;;;;;;;23.80;48.10;;;;;;1513064;77;786;-57
2021/09/18 01:03:26;;;;;;;;;;;23.90;48.20;;;;;;1512882;77;1140;-57
2021/09/18 01:05:30;;;;;;;;;;;23.90;48.20;;;;;;1512893;78;688;-57
2021/09/18 01:07:31;;;;;;;;;;;23.80;48.00;;;;;;1512828;77;1632;-57
2021/09/18 01:09:33;;;;;;;;;;;23.90;48.00;;;;;;1513105;78;1937;-57
2021/09/18 01:11:35;;;;;;;;;;;23.90;48.00;;;;;;1512890;78;646;-57
2021/09/18 01:13:37;;;;;;;;;;;23.90;48.10;;;;;;1512894;77;1097;-57
2021/09/18 01:15:39;;;;;;;;;;;23.90;48.00;;;;;;1512704;77;700;-57
2021/09/18 01:17:41;;;;;;;;;;;23.90;48.10;;;;;;1512877;77;678;-59
2021/09/18 01:19:43;;;;;;;;;;;23.90;48.10;;;;;;1512928;78;743;-58
2021/09/18 01:21:48;;;;;;;;;;;23.90;48.10;;;;;;1512646;78;735;-57
2021/09/18 01:23:50;;;;;;;;;;;23.80;48.10;;;;;;1513094;77;1130;-57
2021/09/18 01:25:52;;;;;;;;;;;23.90;48.10;;;;;;1507067;77;791;-58
2021/09/18 01:27:54;;;;;;;;;;;23.80;48.00;;;;;;1512651;77;770;-57
2021/09/18 01:29:56;;;;;;;;;;;23.90;48.10;;;;;;1507235;78;1923;-57
2021/09/18 01:31:58;;;;;;;;;;;23.90;48.00;;;;;;1506799;78;944;-56
2021/09/18 01:34:00;;;;;;;;;;;23.90;48.00;;;;;;1509855;77;1151;-57
2021/09/18 01:36:02;;;;;;;;;;;23.90;48.00;;;;;;1531239;77;675;-56
2021/09/18 01:38:04;;;;;;;;;;;23.90;47.90;;;;;;1538462;77;763;-56
2021/09/18 01:40:06;;;;;;;;;;;23.90;47.90;;;;;;1538609;77;642;-57
2021/09/18 01:42:08;;;;;;;;;;;23.80;47.80;;;;;;1538625;77;725;-57
2021/09/18 01:44:10;;;;;;;;;;;23.90;47.80;;;;;;1523075;77;1160;-58
2021/09/18 01:46:12;;;;;;;;;;;23.80;47.80;;;;;;1511599;79;690;-57
2021/09/18 01:48:15;;;;;;;;;;;23.90;47.90;;;;;;1511622;79;722;-57
2021/09/18 01:50:46;;;;;;;;;;;23.80;47.90;;;;;;1511250;78;1914;-57
2021/09/18 01:52:47;;;;;;;;;;;23.80;47.90;;;;;;1510414;79;1410;-55
2021/09/18 01:54:46;;;;;;;;;;;23.80;47.80;;;;;;1511672;77;1595;-56
2021/09/18 01:56:48;;;;;;;;;;;23.90;47.90;;;;;;1512054;79;707;-56
2021/09/18 01:58:50;;;;;;;;;;;23.90;47.90;;;;;;1512099;79;618;-56
2021/09/18 02:00:53;;;;;;;;;;;23.80;47.80;;;;;;1511817;79;800;-56
2021/09/18 02:02:55;;;;;;;;;;;23.90;47.90;;;;;;1511806;79;808;-56
2021/09/18 02:04:57;;;;;;;;;;;23.90;47.90;;;;;;1513166;77;1092;-56
2021/09/18 02:06:59;;;;;;;;;;;23.90;47.80;;;;;;1513176;77;631;-56
2021/09/18 02:09:00;;;;;;;;;;;23.90;47.80;;;;;;1513325;78;735;-56
2021/09/18 02:11:02;;;;;;;;;;;23.90;47.70;;;;;;1513017;78;1944;-56
2021/09/18 02:13:06;;;;;;;;;;;23.90;47.80;;;;;;1512365;77;709;-56
2021/09/18 02:15:08;;;;;;;;;;;23.90;47.70;;;;;;1513236;77;1143;-56
2021/09/18 02:17:10;;;;;;;;;;;23.90;47.70;;;;;;1513036;78;728;-57
2021/09/18 02:19:12;;;;;;;;;;;23.90;47.60;;;;;;1513281;78;746;-56
2021/09/18 02:21:14;;;;;;;;;;;23.90;47.60;;;;;;1513230;77;665;-56
2021/09/18 02:23:16;;;;;;;;;;;23.80;47.50;;;;;;1512754;77;1164;-56
2021/09/18 02:25:17;;;;;;;;;;;23.80;47.50;;;;;;1531309;77;843;-56
2021/09/18 02:27:19;;;;;;;;;;;23.80;47.50;;;;;;1541554;77;798;-56
2021/09/18 02:29:21;;;;;;;;;;;23.80;47.60;;;;;;1532999;77;705;-57
2021/09/18 02:31:23;;;;;;;;;;;23.80;47.50;;;;;;1513108;77;1949;-56
2021/09/18 02:33:25;;;;;;;;;;;23.90;47.60;;;;;;1512962;77;1132;-56
2021/09/18 02:35:27;;;;;;;;;;;23.80;47.40;;;;;;1513160;78;680;-56
2021/09/18 02:37:29;;;;;;;;;;;23.80;47.30;;;;;;1513270;78;689;-56
2021/09/18 02:39:31;;;;;;;;;;;23.80;47.30;;;;;;1512975;78;797;-57
2021/09/18 02:41:33;;;;;;;;;;;23.70;47.30;;;;;;1513072;77;665;-56
2021/09/18 02:43:35;;;;;;;;;;;23.80;47.30;;;;;;1513191;77;1192;-56
2021/09/18 02:45:37;;;;;;;;;;;23.80;47.30;;;;;;1483457;80;786;-56
2021/09/18 02:47:39;;;;;;;;;;;23.70;47.30;;;;;;1502865;77;732;-56
2021/09/18 02:49:41;;;;;;;;;;;23.80;47.30;;;;;;1531828;76;779;-57
2021/09/18 02:51:42;;;;;;;;;;;23.80;47.20;;;;;;1523706;76;1926;-56
2021/09/18 02:53:44;;;;;;;;;;;23.80;47.20;;;;;;1524489;76;1131;-56
2021/09/18 02:55:46;;;;;;;;;;;23.80;47.20;;;;;;1548805;76;716;-56
2021/09/18 02:57:48;;;;;;;;;;;23.70;47.20;;;;;;1531040;76;693;-57
2021/09/18 02:59:50;;;;;;;;;;;23.70;47.20;;;;;;1522526;78;690;-56
2021/09/18 03:01:52;;;;;;;;;;;23.80;47.20;;;;;;1530390;76;717;-56
2021/09/18 03:03:54;;;;;;;;;;;23.80;47.20;;;;;;1522647;77;1225;-56
2021/09/18 03:05:56;;;;;;;;;;;23.80;47.20;;;;;;1522851;78;934;-56
2021/09/18 03:07:58;;;;;;;;;;;23.80;47.10;;;;;;1521607;77;807;-57
2021/09/18 03:10:00;;;;;;;;;;;23.70;47.10;;;;;;1520054;76;1931;-58
2021/09/18 03:12:02;;;;;;;;;;;23.70;47.10;;;;;;1516320;78;803;-59
2021/09/18 03:14:04;;;;;;;;;;;23.80;47.10;;;;;;1522591;77;1135;-58
2021/09/18 03:16:09;;;;;;;;;;;23.80;47.20;;;;;;1522989;78;726;-58
2021/09/18 03:18:11;;;;;;;;;;;23.70;47.10;;;;;;1522630;76;787;-58
2021/09/18 03:20:13;;;;;;;;;;;23.80;47.10;;;;;;1522022;78;765;-57
2021/09/18 03:22:15;;;;;;;;;;;23.80;46.80;;;;;;1521910;78;838;-57
2021/09/18 03:24:16;;;;;;;;;;;23.80;46.90;;;;;;1521907;77;1096;-59
2021/09/18 03:26:18;;;;;;;;;;;23.80;47.00;;;;;;1521823;78;643;-58
2021/09/18 03:28:20;;;;;;;;;;;23.70;47.00;;;;;;1519944;76;711;-56
2021/09/18 03:30:22;;;;;;;;;;;23.80;47.00;;;;;;1521830;77;1938;-56
2021/09/18 03:32:24;;;;;;;;;;;23.70;47.00;;;;;;1516985;77;857;-57
2021/09/18 03:34:26;;;;;;;;;;;23.70;47.10;;;;;;1522869;77;1110;-56
2021/09/18 03:36:28;;;;;;;;;;;23.70;47.10;;;;;;1522616;78;572;-56
2021/09/18 03:38:30;;;;;;;;;;;23.70;47.10;;;;;;1522078;76;721;-56
2021/09/18 03:40:32;;;;;;;;;;;23.70;47.20;;;;;;1522233;78;679;-56
2021/09/18 03:42:33;;;;;;;;;;;23.70;47.10;;;;;;1521769;78;753;-58
2021/09/18 03:44:35;;;;;;;;;;;23.70;47.10;;;;;;1522110;77;1127;-57
2021/09/18 03:46:37;;;;;;;;;;;23.70;47.10;;;;;;1522065;76;737;-56
2021/09/18 03:48:39;;;;;;;;;;;23.70;47.10;;;;;;1521914;78;650;-57
2021/09/18 03:50:41;;;;;;;;;;;23.70;47.10;;;;;;1522056;78;1940;-57
2021/09/18 03:52:43;;;;;;;;;;;23.70;47.00;;;;;;1521665;77;795;-56
2021/09/18 03:54:45;;;;;;;;;;;23.60;46.80;;;;;;1526030;77;1044;-57
2021/09/18 03:56:46;;;;;;;;;;;23.60;46.70;;;;;;1522385;76;779;-57
2021/09/18 03:58:48;;;;;;;;;;;23.70;46.80;;;;;;1520986;77;775;-56
2021/09/18 04:00:50;;;;;;;;;;;23.70;46.80;;;;;;1523742;76;709;-56
2021/09/18 04:02:52;;;;;;;;;;;23.70;46.80;;;;;;1525519;77;742;-57
2021/09/18 04:04:54;;;;;;;;;;;23.70;46.80;;;;;;1522581;76;1134;-57
2021/09/18 04:06:56;;;;;;;;;;;23.70;46.80;;;;;;1523207;76;774;-57
2021/09/18 04:08:58;;;;;;;;;;;23.70;46.80;;;;;;1521574;77;735;-57
2021/09/18 04:11:00;;;;;;;;;;;23.60;46.70;;;;;;1523811;77;1938;-56
2021/09/18 04:13:02;;;;;;;;;;;23.70;46.80;;;;;;1523333;77;738;-57
2021/09/18 04:15:04;;;;;;;;;;;23.70;46.80;;;;;;1518422;77;1101;-56
2021/09/18 04:17:06;;;;;;;;;;;23.70;46.80;;;;;;1523521;76;985;-57
2021/09/18 04:19:07;;;;;;;;;;;23.70;46.60;;;;;;1523291;77;734;-56
2021/09/18 04:21:09;;;;;;;;;;;23.70;46.60;;;;;;1523190;77;686;-56
2021/09/18 04:23:11;;;;;;;;;;;23.60;46.40;;;;;;1522907;77;690;-56
2021/09/18 04:25:13;;;;;;;;;;;23.60;46.30;;;;;;1521782;76;796;-58
2021/09/18 04:27:15;;;;;;;;;;;23.60;46.30;;;;;;1521552;77;788;-58
2021/09/18 04:29:17;;;;;;;;;;;23.60;46.30;;;;;;1517964;77;770;-58
2021/09/18 04:31:19;;;;;;;;;;;23.60;46.30;;;;;;1521756;77;1937;-58
2021/09/18 04:33:21;;;;;;;;;;;23.60;46.20;;;;;;1521148;76;1124;-58
2021/09/18 04:35:23;;;;;;;;;;;23.60;46.30;;;;;;1521753;77;771;-58
2021/09/18 04:37:24;;;;;;;;;;;23.60;46.30;;;;;;1521797;77;685;-58
2021/09/18 04:39:26;;;;;;;;;;;23.60;46.20;;;;;;1521312;76;760;-57
2021/09/18 04:41:28;;;;;;;;;;;23.60;46.30;;;;;;1521756;77;703;-57
2021/09/18 04:43:30;;;;;;;;;;;23.60;46.30;;;;;;1521245;76;1130;-58
2021/09/18 04:45:32;;;;;;;;;;;23.60;46.30;;;;;;1521414;77;681;-57
2021/09/18 04:47:34;;;;;;;;;;;23.60;46.30;;;;;;1541008;77;714;-58
2021/09/18 04:49:36;;;;;;;;;;;23.60;46.30;;;;;;1542708;77;758;-57
2021/09/18 04:51:38;;;;;;;;;;;23.60;46.30;;;;;;1524079;76;1953;-56
2021/09/18 04:53:40;;;;;;;;;;;23.60;46.20;;;;;;1521889;77;1181;-57
2021/09/18 04:55:41;;;;;;;;;;;23.60;46.30;;;;;;1521782;78;723;-56
2021/09/18 04:57:43;;;;;;;;;;;23.60;46.30;;;;;;1522291;78;788;-56
2021/09/18 04:59:45;;;;;;;;;;;23.60;46.40;;;;;;1506163;76;802;-57
2021/09/18 05:01:47;;;;;;;;;;;23.60;46.30;;;;;;1521555;76;709;-56
2021/09/18 05:03:49;;;;;;;;;;;23.60;46.30;;;;;;1522170;77;1107;-56
2021/09/18 05:05:51;;;;;;;;;;;23.60;46.40;;;;;;1522138;78;712;-56
2021/09/18 05:07:53;;;;;;;;;;;23.60;46.40;;;;;;1521763;78;695;-57
2021/09/18 05:09:57;;;;;;;;;;;23.60;46.50;;;;;;1521942;76;719;-57
2021/09/18 05:11:58;;;;;;;;;;;23.60;46.40;;;;;;1521853;78;1920;-56
2021/09/18 05:14:00;;;;;;;;;;;23.60;46.30;;;;;;1522020;77;1127;-56
2021/09/18 05:16:02;;;;;;;;;;;23.60;46.00;;;;;;1522317;78;825;-57
2021/09/18 05:18:04;;;;;;;;;;;23.60;46.10;;;;;;1521952;76;742;-56
2021/09/18 05:20:06;;;;;;;;;;;23.60;46.10;;;;;;1522075;76;707;-57
2021/09/18 05:22:08;;;;;;;;;;;23.60;46.30;;;;;;1521995;78;784;-56
2021/09/18 05:24:10;;;;;;;;;;;23.60;46.10;;;;;;1521948;77;1151;-57
2021/09/18 05:26:12;;;;;;;;;;;23.60;46.00;;;;;;1522303;78;711;-57
2021/09/18 05:28:14;;;;;;;;;;;23.60;46.00;;;;;;1521971;76;690;-57
2021/09/18 05:30:16;;;;;;;;;;;23.60;46.00;;;;;;1522041;77;656;-56
2021/09/18 05:32:18;;;;;;;;;;;23.60;46.00;;;;;;1521964;78;1942;-57
2021/09/18 05:34:19;;;;;;;;;;;23.60;46.00;;;;;;1522231;77;1130;-56
2021/09/18 05:36:22;;;;;;;;;;;23.60;46.00;;;;;;1521968;78;905;-57
2021/09/18 05:38:24;;;;;;;;;;;23.60;46.00;;;;;;1521898;76;677;-56
2021/09/18 05:40:26;;;;;;;;;;;23.60;45.90;;;;;;1522146;78;716;-56
2021/09/18 05:42:28;;;;;;;;;;;23.70;46.00;;;;;;1521826;78;659;-57
2021/09/18 05:44:30;;;;;;;;;;;23.60;45.90;;;;;;1522136;77;1184;-58
2021/09/18 05:46:32;;;;;;;;;;;23.60;45.80;;;;;;1522072;78;714;-56
2021/09/18 05:48:34;;;;;;;;;;;23.60;45.90;;;;;;1521945;76;796;-57
2021/09/18 05:50:36;;;;;;;;;;;23.60;46.20;;;;;;1522245;78;678;-56
2021/09/18 05:52:37;;;;;;;;;;;23.60;46.00;;;;;;1521650;78;1952;-57
2021/09/18 05:54:39;;;;;;;;;;;23.60;46.10;;;;;;1522311;77;1115;-57
2021/09/18 05:56:41;;;;;;;;;;;23.60;46.10;;;;;;1522599;76;744;-59
2021/09/18 05:58:43;;;;;;;;;;;23.60;46.10;;;;;;1521748;76;726;-58
2021/09/18 06:00:45;;;;;;;;;;;23.70;46.10;;;;;;1521914;78;722;-58
2021/09/18 06:02:47;;;;;;;;;;;23.80;46.10;;;;;;1521807;78;716;-57
2021/09/18 06:04:49;;;;;;;;;;;23.70;46.30;;;;;;1521650;77;1083;-57
2021/09/18 06:06:51;;;;;;;;;;;23.70;46.20;;;;;;1521903;76;781;-58
2021/09/18 06:08:53;;;;;;;;;;;23.70;46.30;;;;;;1543267;76;1075;-58
2021/09/18 06:10:55;;;;;;;;;;;23.80;46.60;;;;;;1520646;77;633;-58
2021/09/18 06:12:57;;;;;;;;;;;23.70;46.30;;;;;;1528723;77;1940;-57
2021/09/18 06:14:59;;;;;;;;;;;23.70;46.50;;;;;;1521808;77;1131;-57
2021/09/18 06:17:01;;;;;;;;;;;23.70;46.50;;;;;;1519697;76;692;-59
2021/09/18 06:19:03;;;;;;;;;;;23.70;46.50;;;;;;1531149;77;765;-58
2021/09/18 06:21:06;;;;;;;;;;;23.70;46.40;;;;;;1526850;77;882;-59
2021/09/18 06:23:08;;;;;;;;;;;23.60;46.30;;;;;;1549295;77;722;-57
2021/09/18 06:25:12;;;;;;;;;;;23.60;46.40;;;;;;1551163;75;1121;-57
2021/09/18 06:27:14;;;;;;;;;;;23.60;46.50;;;;;;1521081;77;697;-57
2021/09/18 06:29:16;;;;;;;;;;;23.60;46.50;;;;;;1522089;77;697;-57
2021/09/18 06:31:17;;;;;;;;;;;23.60;46.60;;;;;;1528837;77;1957;-57
2021/09/18 06:33:19;;;;;;;;;;;23.60;46.60;;;;;;1544537;75;1161;-58
2021/09/18 06:35:21;;;;;;;;;;;23.60;46.70;;;;;;1531353;76;791;-60
2021/09/18 06:37:23;;;;;;;;;;;23.60;46.80;;;;;;1527410;73;3109;-57
2021/09/18 06:39:25;;;;;;;;;;;23.60;46.90;;;;;;1566605;75;710;-59
2021/09/18 06:41:27;;;;;;;;;;;23.60;47.00;;;;;;1565771;75;734;-59
2021/09/18 06:43:29;;;;;;;;;;;23.50;47.10;;;;;;1569802;75;1219;-60
2021/09/18 06:45:30;;;;;;;;;;;23.50;47.10;;;;;;1558721;75;723;-60
2021/09/18 06:47:32;;;;;;;;;;;23.60;47.10;;;;;;1567970;75;691;-60
2021/09/18 06:49:34;;;;;;;;;;;23.50;47.20;;;;;;1568122;75;750;-59
2021/09/18 06:51:37;;;;;;;;;;;23.60;47.30;;;;;;1556044;75;1950;-60
2021/09/18 06:53:39;;;;;;;;;;;23.60;47.30;;;;;;1567337;75;1169;-60
2021/09/18 06:55:41;;;;;;;;;;;23.60;47.40;;;;;;1561921;75;741;-60
2021/09/18 06:57:43;;;;;;;;;;;23.60;47.50;;;;;;1564848;75;758;-60
2021/09/18 06:59:45;;;;;;;;;;;23.60;47.50;;;;;;1555179;75;681;-60
2021/09/18 07:01:47;;;;;;;;;;;23.50;47.60;;;;;;1560492;75;760;-59
2021/09/18 07:03:49;;;;;;;;;;;23.60;47.60;;;;;;1567629;75;1117;-60
2021/09/18 07:05:50;;;;;;;;;;;23.60;47.70;;;;;;1557894;75;787;-60
2021/09/18 07:07:52;;;;;;;;;;;23.50;47.70;;;;;;1558031;75;796;-60
2021/09/18 07:09:55;;;;;;;;;;;23.60;47.70;;;;;;1558514;75;798;-59
2021/09/18 07:11:56;;;;;;;;;;;23.50;47.80;;;;;;1571545;75;1919;-60
2021/09/18 07:13:58;;;;;;;;;;;23.60;47.90;;;;;;1555162;75;1074;-59
2021/09/18 07:16:00;;;;;;;;;;;23.50;48.00;;;;;;1564193;75;755;-59
2021/09/18 07:18:02;;;;;;;;;;;23.60;48.20;;;;;;1565441;75;864;-58
2021/09/18 07:20:05;;;;;;;;;;;23.50;48.10;;;;;;1558442;75;751;-60
2021/09/18 07:22:06;;;;;;;;;;;23.60;48.10;;;;;;1572492;75;728;-59
2021/09/18 07:24:08;;;;;;;;;;;23.60;48.00;;;;;;1572527;75;1117;-57
2021/09/18 07:26:12;;;;;;;;;;;23.60;47.90;;;;;;1572645;75;723;-59
2021/09/18 07:28:14;;;;;;;;;;;23.60;47.80;;;;;;1572767;75;842;-59
2021/09/18 07:30:16;;;;;;;;;;;23.60;47.80;;;;;;1572228;75;867;-59
2021/09/18 07:32:18;;;;;;;;;;;23.60;47.80;;;;;;1572177;75;1941;-62
2021/09/18 07:34:20;;;;;;;;;;;23.60;47.80;;;;;;1567073;75;1144;-59
2021/09/18 07:36:22;;;;;;;;;;;23.70;47.80;;;;;;1572416;75;736;-60
2021/09/18 07:38:24;;;;;;;;;;;23.70;47.70;;;;;;1571755;75;794;-58
2021/09/18 07:40:26;;;;;;;;;;;23.70;47.70;;;;;;1570527;75;650;-60
2021/09/18 07:42:28;;;;;;;;;;;23.80;47.70;;;;;;1570696;75;710;-60
2021/09/18 07:44:30;;;;;;;;;;;23.70;47.40;;;;;;1545324;75;1153;-58
2021/09/18 07:46:31;;;;;;;;;;;23.80;47.30;;;;;;1545324;75;790;-60
2021/09/18 07:48:33;;;;;;;;;;;23.90;47.50;;;;;;1563018;75;702;-59
2021/09/18 07:50:35;;;;;;;;;;;23.90;47.30;;;;;;1571485;75;786;-59
2021/09/18 07:52:37;;;;;;;;;;;23.90;47.20;;;;;;1571706;75;1933;-60
2021/09/18 07:54:39;;;;;;;;;;;23.90;47.10;;;;;;1572101;75;1144;-58
2021/09/18 07:56:41;;;;;;;;;;;23.90;46.70;;;;;;1572115;75;758;-59
2021/09/18 07:58:43;;;;;;;;;;;23.90;46.50;;;;;;1572192;75;752;-58
2021/09/18 08:00:45;;;;;;;;;;;23.90;46.30;;;;;;1572163;75;772;-59
2021/09/18 08:02:47;;;;;;;;;;;24.00;46.40;;;;;;1572497;75;731;-58
2021/09/18 08:04:50;;;;;;;;;;;23.90;46.40;;;;;;1549237;75;1139;-59
2021/09/18 08:06:52;;;;;;;;;;;24.00;46.40;;;;;;1545573;75;775;-59
2021/09/18 08:08:53;;;;;;;;;;;24.00;46.40;;;;;;1554419;75;680;-58
2021/09/18 08:10:55;;;;;;;;;;;24.10;46.30;;;;;;1572558;75;743;-58
2021/09/18 08:12:57;;;;;;;;;;;24.00;45.80;;;;;;1572537;75;1902;-59
2021/09/18 08:14:59;;;;;;;;;;;24.10;45.90;;;;;;1572691;75;1124;-60
2021/09/18 08:17:01;;;;;;;;;;;24.10;46.00;;;;;;1564504;75;700;-58
2021/09/18 08:19:03;;;;;;;;;;;24.10;46.10;;;;;;1545406;75;683;-58
2021/09/18 08:21:05;;;;;;;;;;;24.20;46.10;;;;;;1545280;77;725;-59
2021/09/18 08:23:07;;;;;;;;;;;24.20;46.00;;;;;;1545059;77;676;-58
2021/09/18 08:25:09;;;;;;;;;;;24.20;45.90;;;;;;1561015;75;1139;-57
2021/09/18 08:27:11;;;;;;;;;;;24.20;45.80;;;;;;1570978;75;716;-58
2021/09/18 08:29:13;;;;;;;;;;;24.20;45.40;;;;;;1571931;75;565;-59
2021/09/18 08:31:15;;;;;;;;;;;24.20;45.40;;;;;;1572010;75;640;-59
2021/09/18 08:33:17;;;;;;;;;;;24.20;45.40;;;;;;1571560;75;1936;-59
2021/09/18 08:35:18;;;;;;;;;;;24.20;45.20;;;;;;1571935;75;729;-59
2021/09/18 08:37:20;;;;;;;;;;;24.30;45.20;;;;;;1564805;75;713;-58
2021/09/18 08:39:22;;;;;;;;;;;24.20;45.00;;;;;;1546779;75;760;-59
2021/09/18 08:41:25;;;;;;;;;;;24.30;45.00;;;;;;1571150;75;737;-61
2021/09/18 08:43:26;;;;;;;;;;;24.30;45.00;;;;;;1562138;75;1190;-60
2021/09/18 08:45:28;;;;;;;;;;;24.30;44.80;;;;;;1553838;75;763;-59
2021/09/18 08:47:30;;;;;;;;;;;24.30;44.70;;;;;;1556976;75;782;-59
2021/09/18 08:49:32;;;;;;;;;;;24.30;44.50;;;;;;1572735;75;735;-59
2021/09/18 08:51:35;;;;;;;;;;;24.30;44.10;;;;;;1571310;75;765;-58
2021/09/18 08:53:37;;;;;;;;;;;24.20;44.00;;;;;;1553705;75;1930;-59
2021/09/18 08:55:39;;;;;;;;;;;24.30;44.20;;;;;;1545806;75;709;-57
2021/09/18 08:57:41;;;;;;;;;;;24.30;44.20;;;;;;1565984;75;684;-59
2021/09/18 08:59:43;;;;;;;;;;;24.30;44.10;;;;;;1545583;75;777;-59
2021/09/18 09:01:45;;;;;;;;;;;24.40;44.10;;;;;;1551826;75;724;-58
2021/09/18 09:03:47;;;;;;;;;;;24.40;43.60;;;;;;1572452;75;1126;-59
2021/09/18 09:05:49;;;;;;;;;;;24.40;43.80;;;;;;1538309;77;1164;-60
2021/09/18 09:08:09;;;;;;;;;;;24.40;43.80;;;;;;1558663;75;783;-59
2021/09/18 09:10:11;;;;;;;;;;;24.30;43.70;;;;;;1558989;75;807;-60
2021/09/18 09:12:13;;;;;;;;;;;24.40;43.80;;;;;;1566820;75;1942;-58
2021/09/18 09:14:14;;;;;;;;;;;24.40;43.80;;;;;;1531766;77;1165;-57
2021/09/18 09:16:16;;;;;;;;;;;24.40;44.10;;;;;;1554285;75;707;-59
2021/09/18 09:18:30;;;;;;;;;;;24.40;44.00;;;;;;1559931;75;749;-58
2021/09/18 09:20:29;;;;;;;;;;;24.40;44.00;;;;;;1557755;75;1076;-59
2021/09/18 09:22:42;;;;;;;;;;;24.30;42.80;;;;;;1554015;75;779;-58
2021/09/18 09:24:48;;;;;;;;;;;24.20;43.40;;;;;;1557781;75;1161;-58
2021/09/18 09:27:06;;;;;;;;;;;24.30;43.40;;;;;;1553152;75;721;-57
2021/09/18 09:29:08;;;;;;;;;;;24.20;43.40;;;;;;1567716;75;744;-59
2021/09/18 09:31:16;;;;;;;;;;;24.20;41.40;;;;;;1571937;75;788;-61
2021/09/18 09:33:18;;;;;;;;;;;24.20;42.70;;;;;;1547264;75;1927;-60
2021/09/18 09:35:20;;;;;;;;;;;24.20;42.60;;;;;;1571857;75;700;-61
2021/09/18 09:37:22;;;;;;;;;;;24.30;42.00;;;;;;1565718;74;703;-60
2021/09/18 09:39:24;;;;;;;;;;;24.20;42.40;;;;;;1564341;74;756;-58
2021/09/18 09:41:33;;;;;;;;;;;24.30;42.80;;;;;;1555867;75;736;-58
2021/09/18 09:43:36;;;;;;;;;;;24.20;43.00;;;;;;1571139;75;1167;-60
2021/09/18 09:45:38;;;;;;;;;;;24.20;43.10;;;;;;1570674;74;1050;-60
2021/09/18 09:47:40;;;;;;;;;;;24.20;43.30;;;;;;1557161;74;738;-65
2021/09/18 09:49:49;;;;;;;;;;;24.20;43.40;;;;;;1558519;75;659;-57
2021/09/18 09:51:50;;;;;;;;;;;24.20;43.50;;;;;;1549785;75;815;-58
2021/09/18 09:53:52;;;;;;;;;;;24.30;43.40;;;;;;1554890;75;1947;-58
2021/09/18 09:55:54;;;;;;;;;;;24.30;43.10;;;;;;1563678;75;879;-58
2021/09/18 09:57:58;;;;;;;;;;;24.30;42.80;;;;;;1554672;75;751;-57
2021/09/18 10:00:00;;;;;;;;;;;24.30;43.00;;;;;;1551154;75;766;-58
2021/09/18 10:02:01;;;;;;;;;;;24.30;43.00;;;;;;1556807;75;834;-59
2021/09/18 10:04:03;;;;;;;;;;;24.30;43.00;;;;;;1561973;75;1126;-57
2021/09/18 10:06:05;;;;;;;;;;;24.30;42.60;;;;;;1559925;75;775;-60
2021/09/18 10:08:07;;;;;;;;;;;24.30;42.30;;;;;;1562244;75;731;-59
2021/09/18 10:10:10;;;;;;;;;;;24.40;42.00;;;;;;1559311;75;917;-59
2021/09/18 10:12:13;;;;;;;;;;;24.30;41.30;;;;;;1558020;75;779;-58
2021/09/18 10:14:19;;;;;;;;;;;24.30;41.60;;;;;;1551357;75;1916;-59
2021/09/18 10:16:20;;;;;;;;;;;24.30;41.70;;;;;;1558323;75;1623;-59
2021/09/18 10:18:23;;;;;;;;;;;24.30;41.60;;;;;;1555203;75;782;-59
2021/09/18 10:24:51;;;;;;;;;;;24.30;41.00;;;;;;1557493;75;1641;-60
2021/09/18 10:26:57;;;;;;;;;;;24.20;41.00;;;;;;1550579;75;727;-60
2021/09/18 10:29:02;;;;;;;;;;;24.20;41.00;;;;;;1549733;75;1493;-60
2021/09/18 10:31:13;;;;;;;;;;;24.20;40.90;;;;;;1556529;75;1657;-60
2021/09/18 10:33:28;;;;;;;;;;;24.20;41.00;;;;;;1556235;75;1935;-57
2021/09/18 10:35:30;;;;;;;;;;;24.20;41.30;;;;;;1549941;75;709;-58
2021/09/18 10:37:33;;;;;;;;;;;24.20;41.30;;;;;;1549138;75;739;-58
2021/09/18 10:39:34;;;;;;;;;;;24.20;41.30;;;;;;1557908;75;771;-59
2021/09/18 10:41:49;;;;;;;;;;;24.20;41.40;;;;;;1552410;75;606;-59
2021/09/18 10:43:53;;;;;;;;;;;24.20;40.70;;;;;;1553446;75;1138;-58
2021/09/18 10:45:55;;;;;;;;;;;24.20;38.00;;;;;;1557192;75;689;-58
2021/09/18 10:47:57;;;;;;;;;;;24.10;37.80;;;;;;1558859;75;766;-60
2021/09/18 10:49:58;;;;;;;;;;;24.00;39.40;;;;;;1567082;75;797;-58
2021/09/18 10:52:08;;;;;;;;;;;24.00;40.00;;;;;;1558211;74;702;-58
2021/09/18 10:54:11;;;;;;;;;;;24.00;39.50;;;;;;1526847;75;1952;-58
2021/09/18 10:56:13;;;;;;;;;;;23.90;37.80;;;;;;1545858;75;672;-59
2021/09/18 10:58:14;;;;;;;;;;;23.80;39.80;;;;;;1565284;74;721;-59
2021/09/18 11:00:21;;;;;;;;;;;23.90;40.30;;;;;;1560790;75;726;-59
2021/09/18 11:02:37;;;;;;;;;;;23.90;40.50;;;;;;1568105;74;750;-59
2021/09/18 11:04:38;;;;;;;;;;;23.90;40.50;;;;;;1555746;75;1132;-57
2021/09/18 11:06:41;;;;;;;;;;;23.80;39.70;;;;;;1564264;75;709;-58
2021/09/18 11:08:44;;;;;;;;;;;23.90;40.00;;;;;;1557888;75;823;-60
2021/09/18 11:10:48;;;;;;;;;;;23.90;39.70;;;;;;1562778;75;1921;-58
2021/09/18 11:13:11;;;;;;;;;;;23.90;40.20;;;;;;1552941;75;1939;-59
2021/09/18 11:15:13;;;;;;;;;;;23.80;40.00;;;;;;1559633;75;797;-57
2021/09/18 11:17:30;;;;;;;;;;;23.70;39.10;;;;;;1560458;75;678;-58
2021/09/18 11:19:32;;;;;;;;;;;23.60;38.90;;;;;;1549409;75;742;-58
2021/09/18 11:21:41;;;;;;;;;;;23.50;39.00;;;;;;1561935;75;779;-58
2021/09/18 11:23:43;;;;;;;;;;;23.40;38.80;;;;;;1556423;75;1183;-58
2021/09/18 11:25:46;;;;;;;;;;;23.40;38.80;;;;;;1559495;75;741;-57
2021/09/18 11:27:50;;;;;;;;;;;23.30;38.90;;;;;;1559054;75;732;-61
2021/09/18 11:29:52;;;;;;;;;;;23.40;39.80;;;;;;1554876;75;1266;-57
2021/09/18 11:32:05;;;;;;;;;;;23.30;40.20;;;;;;1558798;75;802;-57
2021/09/18 11:34:07;;;;;;;;;;;23.50;40.50;;;;;;1567099;75;1919;-57
2021/09/18 11:36:08;;;;;;;;;;;23.50;40.30;;;;;;1557530;75;675;-58
2021/09/18 11:38:10;;;;;;;;;;;23.50;40.30;;;;;;1550091;75;654;-59
2021/09/18 11:40:12;;;;;;;;;;;23.50;40.30;;;;;;1555989;75;827;-58
2021/09/18 11:42:17;;;;;;;;;;;23.40;39.20;;;;;;1561768;75;723;-59
2021/09/18 11:44:19;;;;;;;;;;;23.60;38.60;;;;;;1561492;75;1144;-58
2021/09/18 11:46:22;;;;;;;;;;;23.40;37.30;;;;;;1562144;75;742;-59
2021/09/18 11:48:25;;;;;;;;;;;23.20;36.40;;;;;;1559917;75;970;-60
2021/09/18 11:50:28;;;;;;;;;;;23.20;37.10;;;;;;1561844;75;743;-59
2021/09/18 11:52:38;;;;;;;;;;;23.20;38.50;;;;;;1554049;75;756;-58
2021/09/18 11:54:40;;;;;;;;;;;23.20;37.10;;;;;;1559376;74;1936;-59
2021/09/18 11:56:42;;;;;;;;;;;23.20;38.80;;;;;;1564952;75;786;-60
2021/09/18 11:58:44;;;;;;;;;;;23.10;38.40;;;;;;1559568;75;774;-59
2021/09/18 12:00:47;;;;;;;;;;;23.20;38.90;;;;;;1566378;74;751;-58
2021/09/18 12:02:49;;;;;;;;;;;23.10;39.20;;;;;;1557105;75;796;-58
2021/09/18 12:04:51;;;;;;;;;;;23.20;39.40;;;;;;1556880;75;1130;-58
2021/09/18 12:06:54;;;;;;;;;;;23.10;37.60;;;;;;1557637;75;805;-59
2021/09/18 12:08:56;;;;;;;;;;;23.00;38.40;;;;;;1562367;75;1848;-58
2021/09/18 12:11:00;;;;;;;;;;;23.00;37.40;;;;;;1554247;75;716;-59
2021/09/18 12:13:08;;;;;;;;;;;23.00;39.00;;;;;;1554198;75;1062;-60
2021/09/18 12:15:06;;;;;;;;;;;23.10;39.30;;;;;;1557074;75;1669;-61